Observation data for Northwest San Angelo on 07/01/2020      Previous  Date  Next       Current Mesonet Observations  Soil Data  Daily Summary Page  Observations in Plain Language
KASU 010500Z 06001KT 28/19 A299 RMK A01 T02770192  RH  064%=      5-min Rain = 0
KASU 010505Z 15001KT 28/19 A299 RMK A01 T02770192  RH  063%=      5-min Rain = 0
KASU 010510Z 19002KT 28/19 A2989 RMK A01 T02770192  RH  063%=      5-min Rain = 0
KASU 010515Z 25004KT 28/19 A2988 RMK A01 T02750191  RH  064%=      5-min Rain = 0
KASU 010520Z 26003KT 27/19 A2988 RMK A01 T02730189  RH  064%=      5-min Rain = 0
KASU 010525Z 26003KT 27/19 A2987 RMK A01 T02700187  RH  064%=      5-min Rain = 0
KASU 010530Z 22002KT 27/19 A2987 RMK A01 T02690188  RH  064%=      5-min Rain = 0
KASU 010535Z 20004KT 27/19 A2987 RMK A01 T02670189  RH  066%=      5-min Rain = 0
KASU 010540Z 20005KT 27/19 A2986 RMK A01 T02680190  RH  066%=      5-min Rain = 0
KASU 010545Z 18005KT 27/19 A2986 RMK A01 T02670192  RH  067%=      5-min Rain = 0
KASU 010550Z 18005KT 26/19 A2986 RMK A01 T02640191  RH  068%=      5-min Rain = 0
KASU 010555Z 19006KT 27/19 A2986 RMK A01 T02660191  RH  067%=      5-min Rain = 0
KASU 010600Z 19006KT 27/19 A2986 RMK A01 T02660192  RH  067%=      5-min Rain = 0
KASU 010605Z 19006KT 27/19 A2986 RMK A01 T02660191  RH  067%=      5-min Rain = 0
KASU 010610Z 18006KT 27/19 A2985 RMK A01 T02650191  RH  067%=      5-min Rain = 0
KASU 010615Z 18006KT 27/19 A2985 RMK A01 T02660191  RH  067%=      5-min Rain = 0
KASU 010620Z 18006KT 27/19 A2986 RMK A01 T02650190  RH  067%=      5-min Rain = 0
KASU 010625Z 19005KT 27/19 A2985 RMK A01 T02660190  RH  066%=      5-min Rain = 0
KASU 010630Z 20005KT 27/19 A2985 RMK A01 T02690190  RH  066%=      5-min Rain = 0
KASU 010635Z 21006KT 27/19 A2985 RMK A01 T02690190  RH  065%=      5-min Rain = 0
KASU 010640Z 21006KT 27/19 A2984 RMK A01 T02730190  RH  064%=      5-min Rain = 0
KASU 010645Z 20007KT 28/19 A2984 RMK A01 T02760189  RH  062%=      5-min Rain = 0
KASU 010650Z 19007KT 28/19 A2984 RMK A01 T02780188  RH  061%=      5-min Rain = 0
KASU 010655Z 19007KT 28/19 A2984 RMK A01 T02760189  RH  062%=      5-min Rain = 0
KASU 010700Z 18007KT 28/19 A2984 RMK A01 T02750189  RH  063%=      5-min Rain = 0
KASU 010705Z 18008KT 28/19 A2984 RMK A01 T02750189  RH  062%=      5-min Rain = 0
KASU 010710Z 18007KT 28/19 A2984 RMK A01 T02750188  RH  063%=      5-min Rain = 0
KASU 010715Z 18008KT 28/19 A2984 RMK A01 T02750187  RH  062%=      5-min Rain = 0
KASU 010720Z 19008KT 28/19 A2984 RMK A01 T02780186  RH  061%=      5-min Rain = 0
KASU 010725Z 19008KT 28/19 A2984 RMK A01 T02790186  RH  060%=      5-min Rain = 0
KASU 010730Z 19008KT 28/19 A2984 RMK A01 T02790186  RH  060%=      5-min Rain = 0
KASU 010735Z 19008KT 28/19 A2984 RMK A01 T02780186  RH  060%=      5-min Rain = 0
KASU 010740Z 20007G12KT 28/19 A2984 RMK A01 T02780186  RH  060%=      5-min Rain = 0
KASU 010745Z 20008G13KT 28/19 A2984 RMK A01 T02780186  RH  060%=      5-min Rain = 0
KASU 010750Z 20009G15KT 28/19 A2984 RMK A01 T02780186  RH  060%=      5-min Rain = 0
KASU 010755Z 20009KT 28/19 A2984 RMK A01 T02780186  RH  061%=      5-min Rain = 0
KASU 010800Z 19008KT 28/19 A2984 RMK A01 T02760186  RH  061%=      5-min Rain = 0
KASU 010805Z 20007KT 28/19 A2984 RMK A01 T02750186  RH  062%=      5-min Rain = 0
KASU 010810Z 20007KT 27/19 A2984 RMK A01 T02740186  RH  062%=      5-min Rain = 0
KASU 010815Z 20007KT 27/19 A2984 RMK A01 T02720186  RH  063%=      5-min Rain = 0
KASU 010820Z 21008KT 27/19 A2984 RMK A01 T02720187  RH  063%=      5-min Rain = 0
KASU 010825Z 21006KT 27/19 A2984 RMK A01 T02710187  RH  063%=      5-min Rain = 0
KASU 010830Z 20006KT 27/19 A2984 RMK A01 T02700187  RH  064%=      5-min Rain = 0
KASU 010835Z 20005KT 27/19 A2984 RMK A01 T02690188  RH  064%=      5-min Rain = 0
KASU 010840Z 18004KT 27/19 A2984 RMK A01 T02680188  RH  065%=      5-min Rain = 0
KASU 010845Z 19003KT 27/19 A2984 RMK A01 T02650188  RH  066%=      5-min Rain = 0
KASU 010850Z 22003KT 27/19 A2984 RMK A01 T02650188  RH  066%=      5-min Rain = 0
KASU 010855Z 22003KT 27/19 A2984 RMK A01 T02660189  RH  066%=      5-min Rain = 0
KASU 010900Z 20002KT 27/19 A2984 RMK A01 T02650189  RH  067%=      5-min Rain = 0
KASU 010905Z 22001KT 26/19 A2984 RMK A01 T02630189  RH  067%=      5-min Rain = 0
KASU 010910Z 17001KT 26/19 A2984 RMK A01 T02610189  RH  068%=      5-min Rain = 0
KASU 010915Z 14001KT 26/19 A2985 RMK A01 T02580189  RH  070%=      5-min Rain = 0
KASU 010920Z 12001KT 25/19 A2985 RMK A01 T02510188  RH  072%=      5-min Rain = 0
KASU 010925Z 12002KT 25/19 A2985 RMK A01 T02470188  RH  074%=      5-min Rain = 0
KASU 010930Z 12002KT 25/19 A2985 RMK A01 T02460188  RH  074%=      5-min Rain = 0
KASU 010935Z 15003KT 25/19 A2985 RMK A01 T02470189  RH  074%=      5-min Rain = 0
KASU 010940Z 17004KT 25/19 A2985 RMK A01 T02470189  RH  074%=      5-min Rain = 0
KASU 010945Z 18005KT 25/19 A2985 RMK A01 T02480187  RH  073%=      5-min Rain = 0
KASU 010950Z 19004KT 25/19 A2985 RMK A01 T02490188  RH  073%=      5-min Rain = 0
KASU 010955Z 19003KT 25/19 A2985 RMK A01 T02500188  RH  073%=      5-min Rain = 0
KASU 011000Z 17002KT 25/19 A2985 RMK A01 T02490187  RH  072%=      5-min Rain = 0
KASU 011005Z 18003KT 25/19 A2985 RMK A01 T02470187  RH  073%=      5-min Rain = 0
KASU 011010Z 19003KT 25/19 A2985 RMK A01 T02470186  RH  073%=      5-min Rain = 0
KASU 011015Z 21003KT 25/19 A2985 RMK A01 T02470187  RH  073%=      5-min Rain = 0
KASU 011020Z 21003KT 25/19 A2985 RMK A01 T02470189  RH  074%=      5-min Rain = 0
KASU 011025Z 21003KT 25/19 A2986 RMK A01 T02460189  RH  074%=      5-min Rain = 0
KASU 011030Z 19002KT 25/19 A2986 RMK A01 T02460189  RH  075%=      5-min Rain = 0
KASU 011035Z 17003KT 25/19 A2986 RMK A01 T02450191  RH  076%=      5-min Rain = 0
KASU 011040Z 19004KT 24/19 A2986 RMK A01 T02440191  RH  076%=      5-min Rain = 0
KASU 011045Z 19004KT 25/19 A2986 RMK A01 T02490194  RH  076%=      5-min Rain = 0
KASU 011050Z 19004KT 25/20 A2986 RMK A01 T02500195  RH  076%=      5-min Rain = 0
KASU 011055Z 19003KT 25/20 A2986 RMK A01 T02480195  RH  077%=      5-min Rain = 0
KASU 011100Z 19003KT 25/20 A2986 RMK A01 T02470195  RH  077%=      5-min Rain = 0
KASU 011105Z 19004KT 25/20 A2986 RMK A01 T02460196  RH  078%=      5-min Rain = 0
KASU 011110Z 18004KT 25/20 A2986 RMK A01 T02460197  RH  079%=      5-min Rain = 0
KASU 011115Z 19005KT 25/20 A2986 RMK A01 T02460199  RH  080%=      5-min Rain = 0
KASU 011120Z 18005KT 25/20 A2986 RMK A01 T02460200  RH  080%=      5-min Rain = 0
KASU 011125Z 17005KT 25/20 A2987 RMK A01 T02460202  RH  081%=      5-min Rain = 0
KASU 011130Z 16004KT 25/20 A2987 RMK A01 T02470204  RH  082%=      5-min Rain = 0
KASU 011135Z 16005KT 25/21 A2987 RMK A01 T02470206  RH  083%=      5-min Rain = 0
KASU 011140Z 16005KT 25/21 A2987 RMK A01 T02480208  RH  083%=      5-min Rain = 0
KASU 011145Z 16005KT 25/21 A2987 RMK A01 T02490210  RH  084%=      5-min Rain = 0
KASU 011150Z 17006KT 25/21 A2987 RMK A01 T02510211  RH  083%=      5-min Rain = 0
KASU 011155Z 17006KT 25/21 A2987 RMK A01 T02520212  RH  083%=      5-min Rain = 0
KASU 011200Z 18005KT 25/21 A2988 RMK A01 T02530212  RH  083%=      5-min Rain = 0
KASU 011205Z 19005KT 25/21 A2988 RMK A01 T02530213  RH  083%=      5-min Rain = 0
KASU 011210Z 18005KT 25/21 A2988 RMK A01 T02540213  RH  083%=      5-min Rain = 0
KASU 011215Z 18007KT 25/21 A2988 RMK A01 T02540213  RH  083%=      5-min Rain = 0
KASU 011220Z 18006KT 26/21 A2988 RMK A01 T02550214  RH  083%=      5-min Rain = 0
KASU 011225Z 17006KT 26/21 A2988 RMK A01 T02560214  RH  083%=      5-min Rain = 0
KASU 011230Z 17006KT 26/22 A2988 RMK A01 T02570215  RH  082%=      5-min Rain = 0
KASU 011235Z 17006KT 26/22 A2988 RMK A01 T02580215  RH  082%=      5-min Rain = 0
KASU 011240Z 18005KT 26/22 A2988 RMK A01 T02590216  RH  082%=      5-min Rain = 0
KASU 011245Z 17005KT 26/22 A2988 RMK A01 T02600216  RH  082%=      5-min Rain = 0
KASU 011250Z 17006KT 26/22 A2988 RMK A01 T02620217  RH  081%=      5-min Rain = 0
KASU 011255Z 17006KT 26/22 A2988 RMK A01 T02640218  RH  081%=      5-min Rain = 0
KASU 011300Z 18007KT 27/22 A2988 RMK A01 T02660218  RH  080%=      5-min Rain = 0
KASU 011305Z 18008KT 27/22 A2989 RMK A01 T02670219  RH  080%=      5-min Rain = 0
KASU 011310Z 18009G14KT 27/22 A2989 RMK A01 T02680218  RH  079%=      5-min Rain = 0
KASU 011315Z 19009KT 27/22 A2989 RMK A01 T02680218  RH  079%=      5-min Rain = 0
KASU 011320Z 18009KT 27/22 A2989 RMK A01 T02690218  RH  078%=      5-min Rain = 0
KASU 011325Z 19008KT 27/22 A2989 RMK A01 T02700218  RH  078%=      5-min Rain = 0
KASU 011330Z 19009KT 27/22 A2989 RMK A01 T02700218  RH  078%=      5-min Rain = 0
KASU 011335Z 19008KT 27/22 A2989 RMK A01 T02720218  RH  077%=      5-min Rain = 0
KASU 011340Z 19011KT 27/22 A2989 RMK A01 T02740217  RH  076%=      5-min Rain = 0
KASU 011345Z 18010KT 27/22 A2989 RMK A01 T02740217  RH  075%=      5-min Rain = 0
KASU 011350Z 18012G17KT 28/22 A2989 RMK A01 T02750216  RH  075%=      5-min Rain = 0
KASU 011355Z 20010G15KT 27/22 A299 RMK A01 T02740216  RH  075%=      5-min Rain = 0
KASU 011400Z 19010G15KT 28/22 A299 RMK A01 T02760216  RH  075%=      5-min Rain = 0
KASU 011405Z 20009KT 28/22 A299 RMK A01 T02760216  RH  074%=      5-min Rain = 0
KASU 011410Z 20009G14KT 28/22 A299 RMK A01 T02760216  RH  074%=      5-min Rain = 0
KASU 011415Z 20008KT 28/22 A299 RMK A01 T02790216  RH  073%=      5-min Rain = 0
KASU 011420Z 19010KT 28/22 A2991 RMK A01 T02810216  RH  072%=      5-min Rain = 0
KASU 011425Z 19010KT 28/22 A299 RMK A01 T02820216  RH  072%=      5-min Rain = 0
KASU 011430Z 20009G14KT 29/22 A299 RMK A01 T02870217  RH  070%=      5-min Rain = 0
KASU 011435Z 19010G15KT 29/22 A299 RMK A01 T02870215  RH  069%=      5-min Rain = 0
KASU 011440Z 19010KT 29/22 A299 RMK A01 T02920215  RH  068%=      5-min Rain = 0
KASU 011445Z 19010KT 29/22 A299 RMK A01 T02940215  RH  066%=      5-min Rain = 0
KASU 011450Z 19009KT 30/21 A299 RMK A01 T02950214  RH  065%=      5-min Rain = 0
KASU 011455Z 20009G14KT 30/21 A2989 RMK A01 T03010214  RH  063%=      5-min Rain = 0
KASU 011500Z 20010KT 30/21 A2989 RMK A01 T03010212  RH  063%=      5-min Rain = 0
KASU 011505Z 20011KT 30/21 A299 RMK A01 T03040211  RH  061%=      5-min Rain = 0
KASU 011510Z 20011G17KT 31/21 A299 RMK A01 T03050211  RH  061%=      5-min Rain = 0
KASU 011515Z 22011KT 30/21 A2989 RMK A01 T03040211  RH  061%=      5-min Rain = 0
KASU 011520Z 21008KT 31/21 A2989 RMK A01 T03080211  RH  060%=      5-min Rain = 0
KASU 011525Z 21010G15KT 31/21 A2989 RMK A01 T03110210  RH  059%=      5-min Rain = 0
KASU 011530Z 21010KT 31/21 A2989 RMK A01 T03090210  RH  059%=      5-min Rain = 0
KASU 011535Z 19011KT 31/21 A2989 RMK A01 T03120210  RH  058%=      5-min Rain = 0
KASU 011540Z 19010G15KT 32/21 A2989 RMK A01 T03170209  RH  056%=      5-min Rain = 0
KASU 011545Z 21008G13KT 32/21 A2989 RMK A01 T03150209  RH  057%=      5-min Rain = 0
KASU 011550Z 20008G13KT 32/21 A2989 RMK A01 T03200209  RH  055%=      5-min Rain = 0
KASU 011555Z 22009KT 32/21 A2989 RMK A01 T03210207  RH  054%=      5-min Rain = 0
KASU 011600Z 21010KT 32/21 A2989 RMK A01 T03210207  RH  054%=      5-min Rain = 0
KASU 011605Z 20011G16KT 32/21 A2989 RMK A01 T03240207  RH  053%=      5-min Rain = 0
KASU 011610Z 20008G13KT 32/21 A2989 RMK A01 T03240206  RH  053%=      5-min Rain = 0
KASU 011615Z 18010G16KT 33/21 A2989 RMK A01 T03300205  RH  051%=      5-min Rain = 0
KASU 011620Z 18010KT 34/21 A2989 RMK A01 T03350205  RH  049%=      5-min Rain = 0
KASU 011625Z 19010G15KT 34/21 A2989 RMK A01 T03360206  RH  049%=      5-min Rain = 0
KASU 011630Z 21009G14KT 33/20 A2989 RMK A01 T03310203  RH  050%=      5-min Rain = 0
KASU 011635Z 21009KT 33/20 A2989 RMK A01 T03330203  RH  049%=      5-min Rain = 0
KASU 011640Z 19009KT 34/20 A2989 RMK A01 T03350202  RH  049%=      5-min Rain = 0
KASU 011645Z 18010KT 34/20 A2989 RMK A01 T03410201  RH  047%=      5-min Rain = 0
KASU 011650Z 21008KT 34/20 A2989 RMK A01 T03390202  RH  047%=      5-min Rain = 0
KASU 011655Z 20008KT 34/20 A2989 RMK A01 T03370202  RH  048%=      5-min Rain = 0
KASU 011700Z 21007G12KT 34/20 A2989 RMK A01 T03430200  RH  046%=      5-min Rain = 0
KASU 011705Z 21007G12KT 34/20 A2988 RMK A01 T03400197  RH  045%=      5-min Rain = 0
KASU 011710Z 22008G15KT 34/20 A2988 RMK A01 T03430199  RH  045%=      5-min Rain = 0
KASU 011715Z 21010G16KT 35/20 A2988 RMK A01 T03450195  RH  044%=      5-min Rain = 0
KASU 011720Z 21005G10KT 34/19 A2988 RMK A01 T03430192  RH  043%=      5-min Rain = 0
KASU 011725Z 19009G15KT 35/20 A2988 RMK A01 T03510195  RH  042%=      5-min Rain = 0
KASU 011730Z 21006G12KT 35/19 A2988 RMK A01 T03520192  RH  041%=      5-min Rain = 0
KASU 011735Z 23005G10KT 35/19 A2988 RMK A01 T03520190  RH  041%=      5-min Rain = 0
KASU 011740Z 19006G13KT 36/19 A2988 RMK A01 T03550193  RH  041%=      5-min Rain = 0
KASU 011745Z 21009G14KT 36/19 A2988 RMK A01 T03560189  RH  040%=      5-min Rain = 0
KASU 011750Z 20005G10KT 36/18 A2987 RMK A01 T03550182  RH  038%=      5-min Rain = 0
KASU 011755Z 18006G11KT 36/19 A2987 RMK A01 T03630192  RH  039%=      5-min Rain = 0
KASU 011800Z 17008G13KT 37/20 A2987 RMK A01 T03650195  RH  039%=      5-min Rain = 0
KASU 011805Z 21007KT 37/19 A2987 RMK A01 T03670187  RH  037%=      5-min Rain = 0
KASU 011810Z 23004KT 36/18 A2987 RMK A01 T03600183  RH  037%=      5-min Rain = 0
KASU 011815Z 24004KT 36/18 A2987 RMK A01 T03620179  RH  036%=      5-min Rain = 0
KASU 011820Z 16009KT 37/19 A2987 RMK A01 T03700189  RH  037%=      5-min Rain = 0
KASU 011825Z 17007KT 37/19 A2987 RMK A01 T03720190  RH  037%=      5-min Rain = 0
KASU 011830Z 16009G15KT 37/19 A2987 RMK A01 T03740187  RH  035%=      5-min Rain = 0
KASU 011835Z 19008G13KT 37/18 A2987 RMK A01 T03720184  RH  035%=      5-min Rain = 0
KASU 011840Z 16004G9KT 37/18 A2987 RMK A01 T03710178  RH  034%=      5-min Rain = 0
KASU 011845Z 19004G9KT 37/18 A2986 RMK A01 T03710179  RH  034%=      5-min Rain = 0
KASU 011850Z 17007KT 37/18 A2986 RMK A01 T03720180  RH  034%=      5-min Rain = 0
KASU 011855Z 19003G8KT 37/18 A2986 RMK A01 T03710183  RH  035%=      5-min Rain = 0
KASU 011900Z 14007G17KT 38/18 A2986 RMK A01 T03790184  RH  034%=      5-min Rain = 0
KASU 011905Z 13008G16KT 38/18 A2986 RMK A01 T03790181  RH  033%=      5-min Rain = 0
KASU 011910Z 12011G17KT 38/18 A2986 RMK A01 T03800181  RH  033%=      5-min Rain = 0
KASU 011915Z 14009KT 38/18 A2986 RMK A01 T03770181  RH  034%=      5-min Rain = 0
KASU 011920Z 16009KT 38/18 A2985 RMK A01 T03790176  RH  032%=      5-min Rain = 0
KASU 011925Z 14008G13KT 38/17 A2985 RMK A01 T03790169  RH  031%=      5-min Rain = 0
KASU 011930Z 13005G10KT 38/17 A2985 RMK A01 T03760166  RH  030%=      5-min Rain = 0
KASU 011935Z 12006G12KT 38/17 A2985 RMK A01 T03820165  RH  029%=      5-min Rain = 0
KASU 011940Z 15010G15KT 39/16 A2985 RMK A01 T03880162  RH  028%=      5-min Rain = 0
KASU 011945Z 17005G10KT 39/16 A2985 RMK A01 T03850160  RH  028%=      5-min Rain = 0
KASU 011950Z 15006G11KT 38/16 A2985 RMK A01 T03840161  RH  028%=      5-min Rain = 0
KASU 011955Z 17008KT 39/16 A2984 RMK A01 T03890159  RH  027%=      5-min Rain = 0
KASU 012000Z 14006KT 39/16 A2984 RMK A01 T03930159  RH  026%=      5-min Rain = 0
KASU 012005Z 14008G14KT 40/16 A2984 RMK A01 T03950162  RH  027%=      5-min Rain = 0
KASU 012010Z 13008G13KT 39/17 A2984 RMK A01 T03920165  RH  028%=      5-min Rain = 0
KASU 012015Z 12009KT 39/17 A2984 RMK A01 T03920168  RH  028%=      5-min Rain = 0
KASU 012020Z 12008KT 39/17 A2984 RMK A01 T03910169  RH  029%=      5-min Rain = 0
KASU 012025Z 08004KT 39/16 A2983 RMK A01 T03910164  RH  028%=      5-min Rain = 0
KASU 012030Z 13008G13KT 40/17 A2983 RMK A01 T03950171  RH  029%=      5-min Rain = 0
KASU 012035Z 12007KT 39/17 A2983 RMK A01 T03940172  RH  029%=      5-min Rain = 0
KASU 012040Z 18004G10KT 39/17 A2983 RMK A01 T03880166  RH  029%=      5-min Rain = 0
KASU 012045Z 19007G12KT 39/17 A2982 RMK A01 T03890168  RH  029%=      5-min Rain = 0
KASU 012050Z 15003KT 39/17 A2982 RMK A01 T03900167  RH  029%=      5-min Rain = 0
KASU 012055Z 09006KT 39/17 A2981 RMK A01 T03910169  RH  029%=      5-min Rain = 0
KASU 012100Z 12007G13KT 40/17 A2981 RMK A01 T03960170  RH  028%=      5-min Rain = 0
KASU 012105Z 16005G13KT 39/17 A2981 RMK A01 T03920170  RH  029%=      5-min Rain = 0
KASU 012110Z 13007KT 40/17 A298 RMK A01 T03970173  RH  028%=      5-min Rain = 0
KASU 012115Z 16010KT 40/17 A2979 RMK A01 T04030167  RH  027%=      5-min Rain = 0
KASU 012120Z 15008KT 39/17 A2979 RMK A01 T03940167  RH  028%=      5-min Rain = 0
KASU 012125Z 12007KT 40/17 A2979 RMK A01 T04000168  RH  027%=      5-min Rain = 0
KASU 012130Z 15008G14KT 40/17 A2979 RMK A01 T03980170  RH  028%=      5-min Rain = 0
KASU 012135Z 12006G11KT 40/17 A2979 RMK A01 T03960170  RH  028%=      5-min Rain = 0
KASU 012140Z 15006G12KT 39/17 A2979 RMK A01 T03920166  RH  028%=      5-min Rain = 0
KASU 012145Z 13006KT 40/17 A2979 RMK A01 T03950167  RH  028%=      5-min Rain = 0
KASU 012150Z 15007KT 39/16 A2978 RMK A01 T03890163  RH  028%=      5-min Rain = 0
KASU 012155Z 13008G15KT 39/16 A2978 RMK A01 T03860163  RH  028%=      5-min Rain = 0
KASU 012200Z 12012G21KT 38/16 A2979 RMK A01 T03830156  RH  028%=      5-min Rain = 0
KASU 012205Z 10016G27KT 35/17 A298 RMK A01 T03540166  RH  035%=      5-min Rain = 0
KASU 012210Z 10023G30KT 34/15 A298 RMK A01 T03390151  RH  034%=      5-min Rain = 0
KASU 012215Z 10025G36KT 33/15 A2981 RMK A01 T03300145  RH  034%=      5-min Rain = 0
KASU 012220Z 09023G30KT 32/16 A2981 RMK A01 T03200155  RH  039%=      5-min Rain = 0
KASU 012225Z 10023G37KT 31/17 A2981 RMK A01 T03100169  RH  045%=      5-min Rain = 0
KASU 012230Z 11021G30KT 30/17 A298 RMK A01 T03010173  RH  049%=      5-min Rain = 0
KASU 012235Z 11018G30KT 29/18 A298 RMK A01 T02910180  RH  054%=      5-min Rain = 0
KASU 012240Z 09018G27KT 29/18 A2981 RMK A01 T02870178  RH  054%=      5-min Rain = 0
KASU 012245Z 10016G22KT 29/17 A2983 RMK A01 T02860174  RH  053%=      5-min Rain = 0
KASU 012250Z 10017G22KT 29/17 A2983 RMK A01 T02880167  RH  050%=      5-min Rain = 0
KASU 012255Z 10017G25KT 29/16 A2982 RMK A01 T02860157  RH  048%=      5-min Rain = 0
KASU 012300Z 11005G10KT 29/16 A2984 RMK A01 T02850155  RH  047%=      5-min Rain = 0
KASU 012305Z 29008G13KT 29/16 A2987 RMK A01 T02880156  RH  047%=      5-min Rain = 0
KASU 012310Z 31015G21KT 29/17 A2988 RMK A01 T02850167  RH  051%=      5-min Rain = 0
KASU 012315Z 30016G21KT 27/19 A2989 RMK A01 T02690186  RH  064%=      5-min Rain = 0.04
KASU 012320Z 24009G23KT 27/18 A2989 RMK A01 T02650177  RH  062%=      5-min Rain = 0.19
KASU 012325Z 11016G23KT 25/18 A2988 RMK A01 T02470181  RH  070%=      5-min Rain = 0.18
KASU 012330Z 09014G21KT 23/19 A2986 RMK A01 T02280190  RH  084%=      5-min Rain = 0.16
KASU 012335Z 10013G18KT 23/19 A2986 RMK A01 T02270190  RH  084%=      5-min Rain = 0.14
KASU 012340Z 11013G20KT 23/19 A2986 RMK A01 T02310187  RH  081%=      5-min Rain = 0.01
KASU 012345Z 11012KT 24/18 A2988 RMK A01 T02400184  RH  075%=      5-min Rain = 0
KASU 012350Z 12007KT 24/19 A2989 RMK A01 T02390188  RH  078%=      5-min Rain = 0
KASU 012355Z 18005KT 25/19 A2989 RMK A01 T02450189  RH  075%=      5-min Rain = 0
KASU 020000Z 26004KT 25/19 A2989 RMK A01 T02470194  RH  077%=      5-min Rain = 0
KASU 020005Z 28006KT 24/20 A299 RMK A01 T02400196  RH  081%=      5-min Rain = 0
KASU 020010Z 24007KT 24/19 A2992 RMK A01 T02420194  RH  079%=      5-min Rain = 0
KASU 020015Z 22009G15KT 24/19 A2994 RMK A01 T02430192  RH  077%=      5-min Rain = 0.01
KASU 020020Z 20012KT 24/20 A2995 RMK A01 T02380199  RH  083%=      5-min Rain = 0
KASU 020025Z 20015G20KT 24/20 A2995 RMK A01 T02350195  RH  083%=      5-min Rain = 0.01
KASU 020030Z 18012KT 23/20 A2996 RMK A01 T02290197  RH  087%=      5-min Rain = 0.04
KASU 020035Z 17011KT 23/19 A2996 RMK A01 T02270193  RH  085%=      5-min Rain = 0.01
KASU 020040Z 16012G18KT 23/19 A2997 RMK A01 T02250191  RH  086%=      5-min Rain = 0.01
KASU 020045Z 17014KT 22/19 A2997 RMK A01 T02230188  RH  085%=      5-min Rain = 0
KASU 020050Z 16014G21KT 22/18 A2996 RMK A01 T02210184  RH  084%=      5-min Rain = 0.03
KASU 020055Z 16011G17KT 22/18 A2995 RMK A01 T02180181  RH  084%=      5-min Rain = 0.02
KASU 020100Z 15008KT 22/18 A2995 RMK A01 T02150181  RH  085%=      5-min Rain = 0
KASU 020105Z 17006KT 21/18 A2995 RMK A01 T02140182  RH  086%=      5-min Rain = 0
KASU 020110Z 18005KT 22/18 A2996 RMK A01 T02150184  RH  087%=      5-min Rain = 0
KASU 020115Z 23004KT 22/19 A2996 RMK A01 T02160185  RH  087%=      5-min Rain = 0
KASU 020120Z 27005KT 22/19 A2996 RMK A01 T02150187  RH  088%=      5-min Rain = 0.01
KASU 020125Z 25005KT 21/19 A2997 RMK A01 T02140187  RH  089%=      5-min Rain = 0
KASU 020130Z 20007KT 21/19 A2997 RMK A01 T02130187  RH  090%=      5-min Rain = 0
KASU 020135Z 19007KT 21/19 A2996 RMK A01 T02140186  RH  089%=      5-min Rain = 0
KASU 020140Z 17006KT 21/19 A2996 RMK A01 T02140189  RH  091%=      5-min Rain = 0.01
KASU 020145Z 15006KT 21/19 A2995 RMK A01 T02130190  RH  092%=      5-min Rain = 0
KASU 020150Z 14008KT 21/19 A2995 RMK A01 T02130192  RH  093%=      5-min Rain = 0
KASU 020155Z 13009KT 21/19 A2994 RMK A01 T02140193  RH  093%=      5-min Rain = 0
KASU 020200Z 13009KT 21/19 A2994 RMK A01 T02130192  RH  093%=      5-min Rain = 0.01
KASU 020205Z 13009KT 21/19 A2994 RMK A01 T02120192  RH  093%=      5-min Rain = 0.01
KASU 020210Z 13006KT 21/19 A2994 RMK A01 T02130193  RH  094%=      5-min Rain = 0
KASU 020215Z 13004KT 21/19 A2994 RMK A01 T02140193  RH  093%=      5-min Rain = 0
KASU 020220Z 14004KT 22/19 A2994 RMK A01 T02160194  RH  092%=      5-min Rain = 0.01
KASU 020225Z 14006KT 22/19 A2994 RMK A01 T02180192  RH  090%=      5-min Rain = 0
KASU 020230Z 16007KT 22/19 A2995 RMK A01 T02220189  RH  086%=      5-min Rain = 0
KASU 020235Z 16009KT 23/18 A2997 RMK A01 T02260184  RH  081%=      5-min Rain = 0
KASU 020240Z 17008KT 23/18 A2997 RMK A01 T02280183  RH  080%=      5-min Rain = 0
KASU 020245Z 20006KT 23/19 A2997 RMK A01 T02280186  RH  081%=      5-min Rain = 0.01
KASU 020250Z 20006KT 23/18 A2996 RMK A01 T02270183  RH  081%=      5-min Rain = 0
KASU 020255Z 21006KT 23/19 A2995 RMK A01 T02260185  RH  082%=      5-min Rain = 0
KASU 020300Z 20007KT 23/19 A2996 RMK A01 T02260186  RH  082%=      5-min Rain = 0.01
KASU 020305Z 19011KT 23/19 A2997 RMK A01 T02250185  RH  082%=      5-min Rain = 0
KASU 020310Z 19011G18KT 22/18 A2998 RMK A01 T02240184  RH  082%=      5-min Rain = 0
KASU 020315Z 20012G17KT 22/18 A2998 RMK A01 T02190184  RH  085%=      5-min Rain = 0.01
KASU 020320Z 19012KT 22/19 A2998 RMK A01 T02160186  RH  088%=      5-min Rain = 0
KASU 020325Z 20013G18KT 21/19 A2998 RMK A01 T02140185  RH  088%=      5-min Rain = 0
KASU 020330Z 20012KT 21/18 A2998 RMK A01 T02130184  RH  088%=      5-min Rain = 0
KASU 020335Z 19011KT 21/18 A2998 RMK A01 T02120184  RH  089%=      5-min Rain = 0.01
KASU 020340Z 17011G17KT 21/18 A2997 RMK A01 T02100184  RH  090%=      5-min Rain = 0
KASU 020345Z 17012G18KT 21/18 A2996 RMK A01 T02100183  RH  089%=      5-min Rain = 0
KASU 020350Z 17015G20KT 21/18 A2995 RMK A01 T02110182  RH  088%=      5-min Rain = 0.01
KASU 020355Z 17017KT 21/18 A2995 RMK A01 T02110180  RH  087%=      5-min Rain = 0
KASU 020400Z 18015G21KT 21/18 A2995 RMK A01 T02100180  RH  088%=      5-min Rain = 0.01
KASU 020405Z 18014KT 21/18 A2994 RMK A01 T02100180  RH  087%=      5-min Rain = 0
KASU 020410Z 18013G19KT 21/18 A2995 RMK A01 T02110179  RH  086%=      5-min Rain = 0
KASU 020415Z 17010G15KT 21/18 A2996 RMK A01 T02110179  RH  086%=      5-min Rain = 0.01
KASU 020420Z 19006KT 21/18 A2996 RMK A01 T02130178  RH  085%=      5-min Rain = 0
KASU 020425Z 18006KT 21/18 A2997 RMK A01 T02130179  RH  085%=      5-min Rain = 0.01
KASU 020430Z 16004KT 21/18 A2998 RMK A01 T02110179  RH  086%=      5-min Rain = 0
KASU 020435Z 14003KT 21/18 A2998 RMK A01 T02110180  RH  087%=      5-min Rain = 0.01
KASU 020440Z 12005KT 21/18 A2999 RMK A01 T02140181  RH  086%=      5-min Rain = 0
KASU 020445Z 13005KT 22/18 A2999 RMK A01 T02160182  RH  085%=      5-min Rain = 0.01
KASU 020450Z 13002KT 22/18 A2999 RMK A01 T02160183  RH  086%=      5-min Rain = 0
KASU 020455Z 12002KT 22/18 A2999 RMK A01 T02170184  RH  086%=      5-min Rain = 0

Page generated in 0.0156 seconds.